createdAt,value
2019-03-11T00:01:57.172Z,9.67
2019-03-11T00:04:26.712Z,10.77
2019-03-11T00:06:55.804Z,5.43
2019-03-11T00:09:24.124Z,6.03
2019-03-11T00:11:52.811Z,6.20
2019-03-11T00:14:21.241Z,5.90
2019-03-11T00:16:49.596Z,5.80
2019-03-11T00:19:18.163Z,3.00
2019-03-11T00:21:47.460Z,11.37
2019-03-11T00:24:16.255Z,7.00
2019-03-11T00:26:44.618Z,8.00
2019-03-11T00:29:13.316Z,10.90
2019-03-11T00:31:41.904Z,6.73
2019-03-11T00:34:10.551Z,4.90
2019-03-11T00:36:39.141Z,10.27
2019-03-11T00:39:07.496Z,6.20
2019-03-11T00:41:36.490Z,11.77
2019-03-11T00:44:05.242Z,7.37
2019-03-11T00:46:33.976Z,8.53
2019-03-11T00:49:02.913Z,6.53
2019-03-11T00:51:31.388Z,6.17
2019-03-11T00:54:00.344Z,6.27
2019-03-11T00:56:28.969Z,6.87
2019-03-11T00:58:57.712Z,6.10
2019-03-11T01:01:26.308Z,9.97
2019-03-11T01:03:54.756Z,6.53
2019-03-11T01:06:23.027Z,6.10
2019-03-11T01:08:51.544Z,5.93
2019-03-11T01:11:19.802Z,10.80
2019-03-11T01:13:48.106Z,9.70
2019-03-11T01:16:16.272Z,7.30
2019-03-11T01:18:44.988Z,6.03
2019-03-11T01:21:14.041Z,7.77
2019-03-11T01:23:42.635Z,4.90
2019-03-11T01:26:11.413Z,5.67
2019-03-11T01:28:39.908Z,5.50
2019-03-11T01:31:08.728Z,6.80
2019-03-11T01:33:37.077Z,6.87
2019-03-11T01:36:05.824Z,6.83
2019-03-11T01:38:34.476Z,8.63
2019-03-11T01:41:03.060Z,10.73
2019-03-11T01:43:31.183Z,8.63
2019-03-11T01:45:59.603Z,6.40
2019-03-11T01:48:28.357Z,8.37
2019-03-11T01:50:56.856Z,4.80
2019-03-11T01:53:25.319Z,9.43
2019-03-11T01:55:53.685Z,7.00
2019-03-11T01:58:22.008Z,5.10
2019-03-11T02:00:50.697Z,10.60
2019-03-11T02:03:19.550Z,7.47
2019-03-11T02:05:48.080Z,4.73
2019-03-11T02:08:16.925Z,8.57
2019-03-11T02:10:45.172Z,6.73
2019-03-11T02:13:13.408Z,5.67
2019-03-11T02:15:42.316Z,9.77
2019-03-11T02:18:11.054Z,6.57
2019-03-11T02:20:39.548Z,8.23
2019-03-11T02:23:08.364Z,8.60
2019-03-11T02:25:36.752Z,6.07
2019-03-11T02:28:05.240Z,13.27
2019-03-11T02:30:33.791Z,7.00
2019-03-11T02:33:02.397Z,9.43
2019-03-11T02:35:31.241Z,7.50
2019-03-11T02:38:00.003Z,9.13
2019-03-11T02:40:28.496Z,10.97
2019-03-11T02:42:56.809Z,7.47
2019-03-11T02:45:26.541Z,8.30
2019-03-11T02:47:55.288Z,7.50
2019-03-11T02:50:23.815Z,10.60
2019-03-11T02:52:52.552Z,7.73
2019-03-11T02:55:20.672Z,6.33
2019-03-11T02:57:48.789Z,5.83
2019-03-11T03:00:18.131Z,9.63
2019-03-11T03:02:58.738Z,9.97
2019-03-11T03:05:33.675Z,12.07
2019-03-11T03:08:02.172Z,8.17
2019-03-11T03:10:30.384Z,13.17
2019-03-11T03:12:58.992Z,10.30
2019-03-11T03:15:27.175Z,8.13
2019-03-11T03:17:56.042Z,9.30
2019-03-11T03:20:24.633Z,9.70
2019-03-11T03:22:53.477Z,9.80
2019-03-11T03:25:32.903Z,9.00
2019-03-11T03:27:53.202Z,12.93
2019-03-11T03:30:21.785Z,12.27
2019-03-11T03:32:50.525Z,10.73
2019-03-11T03:35:19.369Z,14.30
2019-03-11T03:37:48.275Z,7.67
2019-03-11T03:40:16.578Z,6.83
2019-03-11T03:42:45.179Z,12.80
2019-03-11T03:45:23.590Z,10.07
2019-03-11T03:47:51.966Z,10.30
2019-03-11T03:50:20.647Z,6.50
2019-03-11T03:52:49.383Z,7.57
2019-03-11T03:55:17.909Z,5.87
2019-03-11T03:57:46.496Z,7.43
2019-03-11T04:00:15.687Z,6.40
2019-03-11T04:03:08.929Z,10.95
2019-03-11T04:05:37.600Z,9.00
2019-03-11T04:08:05.723Z,8.13
2019-03-11T04:10:34.760Z,9.07
2019-03-11T04:13:03.700Z,13.27
2019-03-11T04:15:33.097Z,14.47
2019-03-11T04:18:02.351Z,11.57
2019-03-11T04:20:31.344Z,9.77
2019-03-11T04:23:00.035Z,15.03
2019-03-11T04:25:30.437Z,15.60
2019-03-11T04:27:58.812Z,10.20
2019-03-11T04:30:27.429Z,12.10
2019-03-11T04:32:56.885Z,11.80
2019-03-11T04:35:25.551Z,10.70
2019-03-11T04:37:54.332Z,10.83
2019-03-11T04:40:22.979Z,16.33
2019-03-11T04:42:51.973Z,10.40
2019-03-11T04:45:20.529Z,11.10
2019-03-11T04:47:49.392Z,11.10
2019-03-11T04:50:18.341Z,8.83
2019-03-11T04:52:46.815Z,12.30
2019-03-11T04:55:15.119Z,10.47
2019-03-11T04:57:44.692Z,12.60
2019-03-11T05:00:14.546Z,12.20
2019-03-11T05:02:42.880Z,8.03
2019-03-11T05:05:11.280Z,11.57
2019-03-11T05:07:39.529Z,11.33
2019-03-11T05:10:08.379Z,11.80
2019-03-11T05:12:36.692Z,11.07
2019-03-11T05:15:06.117Z,8.00
2019-03-11T05:17:34.752Z,11.77
2019-03-11T05:20:03.641Z,9.80
2019-03-11T05:22:32.124Z,11.93
2019-03-11T05:25:00.440Z,13.67
2019-03-11T05:27:28.872Z,15.50
2019-03-11T05:29:57.035Z,12.33
2019-03-11T05:32:25.555Z,10.37
2019-03-11T05:34:54.668Z,13.83
2019-03-11T05:37:23.616Z,17.87
2019-03-11T05:39:52.012Z,11.23
2019-03-11T05:42:20.693Z,15.37
2019-03-11T05:44:49.073Z,14.07
2019-03-11T05:47:18.112Z,13.63
2019-03-11T05:49:46.792Z,15.30
2019-03-11T05:52:15.732Z,13.70
2019-03-11T05:54:44.432Z,18.27
2019-03-11T05:57:13.088Z,14.30
2019-03-11T05:59:41.820Z,15.20
2019-03-11T06:02:10.685Z,10.07
2019-03-11T06:04:39.236Z,12.93
2019-03-11T06:07:07.808Z,11.83
2019-03-11T06:09:37.152Z,11.53
2019-03-11T06:12:05.800Z,17.60
2019-03-11T06:14:36.108Z,16.13
2019-03-11T06:17:04.840Z,23.20
2019-03-11T06:19:33.643Z,18.93
2019-03-11T06:22:15.874Z,21.47
2019-03-11T06:24:44.698Z,20.03
2019-03-11T06:27:13.620Z,19.40
2019-03-11T06:29:42.252Z,20.63
2019-03-11T06:32:10.686Z,21.23
2019-03-11T06:34:40.654Z,21.00
2019-03-11T06:37:09.012Z,19.93
2019-03-11T06:39:37.663Z,20.27
2019-03-11T06:42:06.325Z,16.63
2019-03-11T06:44:34.524Z,15.10
2019-03-11T06:47:03.122Z,17.77
2019-03-11T06:49:31.424Z,11.20
2019-03-11T06:52:03.430Z,13.27
2019-03-11T06:54:31.245Z,16.80
2019-03-11T06:56:59.672Z,10.73
2019-03-11T06:59:28.082Z,12.80
2019-03-11T07:01:56.720Z,15.83
2019-03-11T07:04:25.344Z,14.10
2019-03-11T07:06:53.760Z,18.63
2019-03-11T07:09:22.348Z,15.83
2019-03-11T07:11:50.949Z,16.80
2019-03-11T07:14:19.937Z,13.50
2019-03-11T07:16:48.529Z,16.43
2019-03-11T07:19:16.975Z,16.63
2019-03-11T07:21:45.707Z,13.83
2019-03-11T07:24:15.589Z,22.70
2019-03-11T07:26:44.223Z,25.27
2019-03-11T07:29:13.236Z,25.67
2019-03-11T07:31:42.273Z,21.33
2019-03-11T07:34:11.111Z,21.57
2019-03-11T07:36:39.561Z,21.63
2019-03-11T07:39:07.976Z,27.70
2019-03-11T07:41:36.309Z,29.10
2019-03-11T07:44:05.091Z,30.40
2019-03-11T07:46:33.684Z,26.47
2019-03-11T07:49:02.475Z,21.10
2019-03-11T07:51:31.008Z,17.97
2019-03-11T07:53:59.482Z,22.43
2019-03-11T07:56:28.348Z,27.73
2019-03-11T07:58:56.769Z,21.20
2019-03-11T08:01:25.185Z,33.00
2019-03-11T08:03:53.901Z,18.50
2019-03-11T08:06:22.384Z,31.33
2019-03-11T08:08:51.037Z,23.07
2019-03-11T08:11:19.654Z,20.23
2019-03-11T08:13:48.124Z,20.43
2019-03-11T08:16:16.775Z,18.53
2019-03-11T08:18:45.515Z,20.87
2019-03-11T08:21:14.039Z,25.93
2019-03-11T08:23:42.775Z,21.90
2019-03-11T08:26:12.590Z,26.93
2019-03-11T08:28:41.082Z,24.83
2019-03-11T08:31:09.276Z,27.60
2019-03-11T08:33:37.857Z,18.40
2019-03-11T08:36:06.147Z,30.37
2019-03-11T08:38:34.584Z,20.07
2019-03-11T08:41:03.164Z,24.40
2019-03-11T08:43:32.012Z,19.97
2019-03-11T08:46:00.658Z,25.37
2019-03-11T08:48:29.691Z,25.47
2019-03-11T08:50:58.697Z,23.37
2019-03-11T08:53:27.027Z,15.97
2019-03-11T08:55:55.716Z,20.77
2019-03-11T08:58:24.626Z,25.70
2019-03-11T09:00:53.393Z,18.17
2019-03-11T09:03:22.152Z,24.33
2019-03-11T09:05:50.812Z,25.40
2019-03-11T09:08:19.428Z,18.50
2019-03-11T09:10:48.173Z,19.03
2019-03-11T09:13:16.726Z,17.70
2019-03-11T09:15:45.245Z,19.10
2019-03-11T09:18:13.805Z,26.07
2019-03-11T09:20:42.303Z,21.87
2019-03-11T09:23:11.212Z,18.27
2019-03-11T09:25:39.620Z,21.50
2019-03-11T09:28:08.330Z,20.37
2019-03-11T09:30:36.607Z,18.07
2019-03-11T09:33:05.301Z,19.03
2019-03-11T09:35:34.052Z,26.07
2019-03-11T09:38:03.908Z,14.97
2019-03-11T09:40:32.657Z,22.67
2019-03-11T09:43:01.293Z,30.33
2019-03-11T09:45:30.390Z,24.20
2019-03-11T09:47:59.940Z,23.27
2019-03-11T09:50:28.991Z,18.50
2019-03-11T09:52:58.166Z,25.33
2019-03-11T09:55:26.615Z,19.20
2019-03-11T09:57:54.943Z,21.47
2019-03-11T10:00:24.084Z,15.97
2019-03-11T10:02:53.568Z,26.00
2019-03-11T10:05:22.854Z,17.27
2019-03-11T10:07:51.401Z,13.93
2019-03-11T10:10:19.871Z,14.03
2019-03-11T10:12:48.473Z,15.33
2019-03-11T10:15:17.392Z,18.43
2019-03-11T10:17:45.909Z,19.07
2019-03-11T10:20:14.755Z,15.83
2019-03-11T10:22:43.597Z,17.20
2019-03-11T10:25:13.774Z,18.33
2019-03-11T10:27:42.270Z,17.10
2019-03-11T10:30:11.895Z,19.67
2019-03-11T10:32:41.079Z,18.10
2019-03-11T10:35:30.856Z,19.27
2019-03-11T10:37:43.665Z,16.97
2019-03-11T10:40:13.299Z,23.30
2019-03-11T10:42:41.984Z,17.57
2019-03-11T10:45:10.537Z,17.80
2019-03-11T10:47:39.520Z,17.00
2019-03-11T10:50:08.456Z,23.63
2019-03-11T10:52:37.137Z,18.43
2019-03-11T10:55:06.499Z,26.73
2019-03-11T10:57:35.076Z,38.90
2019-03-11T11:00:04.149Z,29.00
2019-03-11T11:02:33.117Z,34.47
2019-03-11T11:05:01.854Z,36.97
2019-03-11T11:07:30.584Z,27.63
2019-03-11T11:09:59.275Z,30.33
2019-03-11T11:12:28.788Z,26.97
2019-03-11T11:14:57.257Z,31.67
2019-03-11T11:17:25.794Z,27.07
2019-03-11T11:20:02.900Z,27.57
2019-03-11T11:22:24.949Z,27.73
2019-03-11T11:24:53.388Z,39.30
2019-03-11T11:27:21.814Z,34.90
2019-03-11T11:29:50.301Z,32.93
2019-03-11T11:32:18.901Z,37.83
2019-03-11T11:34:48.848Z,34.47
2019-03-11T11:37:17.500Z,28.63
2019-03-11T11:39:46.272Z,31.13
2019-03-11T11:42:14.907Z,38.70
2019-03-11T11:44:43.736Z,28.17
2019-03-11T11:47:12.589Z,26.97
2019-03-11T11:49:41.408Z,25.00
2019-03-11T11:52:10.213Z,30.27
2019-03-11T11:54:38.537Z,37.50
2019-03-11T11:57:07.012Z,34.53
2019-03-11T11:59:35.298Z,36.03
2019-03-11T12:02:04.473Z,37.03
2019-03-11T12:04:33.085Z,29.63
2019-03-11T12:07:01.943Z,35.83
2019-03-11T12:09:30.655Z,39.50
2019-03-11T12:11:59.335Z,42.05
2019-03-11T12:14:28.132Z,31.60
2019-03-11T12:16:57.060Z,30.60
2019-03-11T12:19:26.119Z,37.23
2019-03-11T12:21:54.804Z,36.57
2019-03-11T12:24:23.516Z,29.23
2019-03-11T12:26:52.120Z,46.10
2019-03-11T12:29:21.171Z,36.53
2019-03-11T12:31:50.108Z,34.47
2019-03-11T12:34:18.428Z,31.23
2019-03-11T12:36:47.065Z,35.30
2019-03-11T12:39:15.499Z,36.87
2019-03-11T12:41:43.793Z,47.90
2019-03-11T12:44:12.669Z,46.33
2019-03-11T12:46:41.308Z,40.67
2019-03-11T12:49:09.624Z,37.43
2019-03-11T12:51:48.838Z,34.77
2019-03-11T12:54:08.941Z,42.00
2019-03-11T12:56:37.939Z,35.93
2019-03-11T12:59:06.728Z,36.53
2019-03-11T13:01:39.431Z,45.30
2019-03-11T13:04:08.195Z,41.13
2019-03-11T13:06:37.237Z,36.70
2019-03-11T13:09:06.268Z,35.40
2019-03-11T13:11:37.309Z,34.80
2019-03-11T13:14:06.114Z,41.70
2019-03-11T13:16:39.835Z,43.63
2019-03-11T13:19:13.104Z,43.43
2019-03-11T13:21:39.899Z,53.10
2019-03-11T13:24:08.887Z,53.83
2019-03-11T13:26:38.588Z,42.33
2019-03-11T13:29:07.373Z,38.47
2019-03-11T13:31:35.710Z,45.00
2019-03-11T13:34:04.640Z,45.50
2019-03-11T13:36:33.045Z,43.70
2019-03-11T13:39:01.453Z,37.67
2019-03-11T13:41:31.650Z,44.10
2019-03-11T13:44:00.076Z,38.20
2019-03-11T13:46:29.420Z,37.37
2019-03-11T13:48:58.179Z,38.53
2019-03-11T13:51:26.679Z,41.70
2019-03-11T13:53:54.964Z,47.23
2019-03-11T13:56:23.719Z,42.00
2019-03-11T13:58:51.913Z,39.20
2019-03-11T14:01:21.426Z,43.30
2019-03-11T14:03:50.388Z,43.35
2019-03-11T14:06:18.930Z,39.57
2019-03-11T14:08:47.953Z,40.07
2019-03-11T14:11:16.596Z,39.30
2019-03-11T14:13:46.204Z,39.73
2019-03-11T14:16:14.814Z,36.40
2019-03-11T14:18:43.196Z,41.77
2019-03-11T14:21:11.829Z,45.53
2019-03-11T14:23:39.973Z,33.90
2019-03-11T14:26:08.325Z,46.53
2019-03-11T14:28:36.713Z,44.60
2019-03-11T14:31:05.939Z,55.77
2019-03-11T14:33:34.464Z,55.83
2019-03-11T14:36:03.008Z,59.25
2019-03-11T14:38:31.168Z,55.20
2019-03-11T14:40:59.481Z,46.17
2019-03-11T14:43:27.580Z,50.57
2019-03-11T14:45:56.346Z,53.03
2019-03-11T14:48:24.449Z,43.53
2019-03-11T14:50:54.969Z,55.87
2019-03-11T14:53:23.300Z,55.00
2019-03-11T14:55:52.929Z,49.47
2019-03-11T14:58:29.351Z,40.50
2019-03-11T15:00:52.128Z,42.37
2019-03-11T15:03:20.903Z,48.00
2019-03-11T15:05:50.628Z,40.77
2019-03-11T15:08:19.060Z,43.70
2019-03-11T15:10:47.496Z,47.87
2019-03-11T15:13:16.391Z,48.87
2019-03-11T15:15:45.176Z,38.00
2019-03-11T15:18:13.535Z,53.10
2019-03-11T15:20:42.045Z,40.20
2019-03-11T15:23:20.041Z,46.07
2019-03-11T15:25:41.515Z,32.27
2019-03-11T15:28:10.508Z,34.87
2019-03-11T15:30:38.888Z,40.00
2019-03-11T15:33:07.451Z,43.43
2019-03-11T15:35:35.983Z,37.13
2019-03-11T15:38:05.559Z,44.17
2019-03-11T15:40:34.656Z,42.80
2019-03-11T15:43:03.484Z,37.07
2019-03-11T15:45:38.544Z,45.53
2019-03-11T15:48:02.393Z,64.67
2019-03-11T15:50:30.604Z,41.57
2019-03-11T15:52:58.775Z,48.68
2019-03-11T15:55:27.493Z,52.13
2019-03-11T15:57:56.764Z,53.77
2019-03-11T16:00:25.194Z,39.07
2019-03-11T16:02:53.957Z,49.50
2019-03-11T16:05:22.946Z,52.43
2019-03-11T16:07:53.021Z,39.33
2019-03-11T16:10:22.163Z,46.00
2019-03-11T16:12:50.993Z,44.13
2019-03-11T16:15:19.680Z,52.33
2019-03-11T16:17:48.526Z,40.00
2019-03-11T16:20:18.003Z,44.13
2019-03-11T16:22:46.705Z,41.97
2019-03-11T16:25:15.817Z,53.53
2019-03-11T16:27:44.471Z,45.80
2019-03-11T16:30:16.408Z,48.60
2019-03-11T16:32:57.906Z,38.73
2019-03-11T16:35:15.420Z,51.13
2019-03-11T16:37:44.158Z,41.93
2019-03-11T16:40:13.988Z,40.63
2019-03-11T16:42:42.919Z,40.53
2019-03-11T16:45:11.964Z,54.30
2019-03-11T16:47:40.453Z,46.33
2019-03-11T16:50:10.981Z,43.57
2019-03-11T16:52:39.801Z,53.17
2019-03-11T16:55:09.068Z,40.40
2019-03-11T16:57:37.582Z,44.40
2019-03-11T17:00:10.101Z,44.23
2019-03-11T17:02:38.958Z,51.40
2019-03-11T17:05:07.733Z,46.10
2019-03-11T17:07:36.625Z,44.30
2019-03-11T17:10:05.500Z,53.10
2019-03-11T17:12:34.197Z,55.23
2019-03-11T17:15:02.701Z,49.43
2019-03-11T17:17:31.976Z,55.50
2019-03-11T17:20:00.726Z,42.20
2019-03-11T17:22:29.267Z,46.30
2019-03-11T17:24:58.041Z,55.03
2019-03-11T17:27:26.602Z,63.53
2019-03-11T17:29:55.118Z,56.37
2019-03-11T17:32:23.320Z,61.17
2019-03-11T17:34:52.064Z,50.57
2019-03-11T17:37:20.605Z,60.83
2019-03-11T17:39:49.599Z,55.20
2019-03-11T17:42:18.345Z,64.57
2019-03-11T17:44:46.971Z,52.23
2019-03-11T17:47:15.600Z,66.00
2019-03-11T17:49:44.488Z,53.57
2019-03-11T17:52:12.933Z,69.40
2019-03-11T17:54:42.430Z,68.80
2019-03-11T17:57:10.840Z,54.87
2019-03-11T17:59:40.812Z,56.93
2019-03-11T18:02:09.923Z,56.37
2019-03-11T18:04:38.756Z,55.03
2019-03-11T18:07:07.240Z,64.20
2019-03-11T18:09:35.568Z,52.17
2019-03-11T18:12:03.989Z,51.10
2019-03-11T18:14:32.707Z,49.80
2019-03-11T18:17:02.164Z,40.53
2019-03-11T18:19:31.043Z,51.37
2019-03-11T18:22:00.023Z,48.93
2019-03-11T18:24:29.016Z,60.33
2019-03-11T18:26:58.213Z,45.93
2019-03-11T18:29:27.006Z,51.67
2019-03-11T18:32:01.945Z,47.80
2019-03-11T18:34:26.214Z,67.80
2019-03-11T18:36:55.523Z,56.10
2019-03-11T18:39:24.266Z,50.67
2019-03-11T18:41:53.115Z,52.03
2019-03-11T18:44:21.703Z,45.90
2019-03-11T18:46:50.248Z,49.03
2019-03-11T18:49:18.948Z,50.17
2019-03-11T18:51:47.639Z,51.02
2019-03-11T18:54:16.459Z,40.97
2019-03-11T18:56:45.327Z,57.67
2019-03-11T18:59:13.625Z,34.53
2019-03-11T19:01:42.008Z,42.53
2019-03-11T19:04:10.346Z,48.50
2019-03-11T19:06:38.744Z,44.40
2019-03-11T19:09:07.320Z,46.00
2019-03-11T19:11:37.376Z,36.07
2019-03-11T19:14:05.535Z,35.77
2019-03-11T19:16:33.800Z,35.80
2019-03-11T19:19:02.610Z,40.33
2019-03-11T19:21:31.898Z,39.30
2019-03-11T19:24:00.232Z,44.80
2019-03-11T19:26:28.620Z,49.27
2019-03-11T19:28:57.975Z,40.33
2019-03-11T19:31:26.314Z,41.27
2019-03-11T19:33:55.445Z,38.47
2019-03-11T19:36:25.088Z,51.97
2019-03-11T19:38:53.404Z,35.27
2019-03-11T19:41:22.288Z,37.57
2019-03-11T19:43:50.945Z,28.13
2019-03-11T19:46:19.238Z,27.97
2019-03-11T19:48:47.967Z,23.23
2019-03-11T19:51:16.216Z,29.97
2019-03-11T19:53:44.710Z,39.27
2019-03-11T19:56:16.206Z,23.33
2019-03-11T19:58:45.582Z,32.80
2019-03-11T20:01:14.198Z,35.57
2019-03-11T20:03:42.549Z,30.63
2019-03-11T20:06:11.280Z,34.50
2019-03-11T20:08:40.181Z,27.80
2019-03-11T20:11:08.796Z,36.90
2019-03-11T20:13:38.083Z,33.33
2019-03-11T20:16:06.580Z,36.73
2019-03-11T20:18:35.298Z,28.47
2019-03-11T20:21:03.978Z,29.97
2019-03-11T20:23:32.274Z,31.57
2019-03-11T20:26:01.595Z,27.43
2019-03-11T20:28:30.331Z,30.93
2019-03-11T20:30:58.725Z,35.23
2019-03-11T20:33:27.615Z,37.23
2019-03-11T20:35:58.295Z,24.77
2019-03-11T20:38:27.434Z,31.37
2019-03-11T20:40:56.656Z,37.43
2019-03-11T20:43:27.097Z,40.77
2019-03-11T20:45:55.888Z,33.60
2019-03-11T20:48:24.594Z,42.50
2019-03-11T20:50:53.335Z,36.23
2019-03-11T20:53:22.748Z,45.73
2019-03-11T20:55:51.909Z,35.97
2019-03-11T20:58:21.287Z,43.00
2019-03-11T21:00:50.107Z,41.60
2019-03-11T21:03:19.742Z,47.67
2019-03-11T21:05:49.495Z,50.20
2019-03-11T21:08:17.834Z,46.23
2019-03-11T21:10:46.566Z,35.40
2019-03-11T21:13:16.069Z,36.23
2019-03-11T21:15:45.350Z,43.57
2019-03-11T21:18:15.433Z,44.83
2019-03-11T21:20:44.839Z,45.33
2019-03-11T21:23:13.599Z,40.87
2019-03-11T21:25:42.239Z,37.87
2019-03-11T21:28:11.179Z,40.73
2019-03-11T21:30:39.795Z,47.97
2019-03-11T21:33:07.932Z,49.83
2019-03-11T21:35:37.070Z,49.03
2019-03-11T21:38:05.528Z,49.03
2019-03-11T21:40:33.872Z,51.90
2019-03-11T21:43:02.283Z,62.80
2019-03-11T21:45:34.498Z,46.33
2019-03-11T21:48:00.899Z,50.53
2019-03-11T21:50:29.871Z,50.67
2019-03-11T21:52:58.513Z,47.47
2019-03-11T21:55:26.902Z,57.60
2019-03-11T21:57:55.437Z,62.97
2019-03-11T22:00:34.096Z,50.97
2019-03-11T22:02:54.131Z,42.93
2019-03-11T22:05:22.610Z,48.77
2019-03-11T22:07:50.728Z,57.03
2019-03-11T22:10:19.661Z,54.38
2019-03-11T22:12:47.996Z,53.93
2019-03-11T22:15:16.468Z,49.27
2019-03-11T22:17:44.772Z,47.70
2019-03-11T22:20:13.341Z,55.30
2019-03-11T22:22:41.851Z,43.23
2019-03-11T22:25:11.204Z,59.47
2019-03-11T22:27:40.525Z,56.90
2019-03-11T22:30:11.200Z,25.17
2019-03-11T22:32:39.516Z,24.60
2019-03-11T22:35:12.892Z,25.13
2019-03-11T22:37:39.031Z,10.53
2019-03-11T22:40:08.089Z,25.67
2019-03-11T22:42:36.512Z,19.00
2019-03-11T22:45:05.432Z,16.23
2019-03-11T22:47:38.415Z,13.53
2019-03-11T22:50:07.394Z,17.43
2019-03-11T22:52:35.704Z,7.27
2019-03-11T22:55:07.496Z,12.83
2019-03-11T22:57:35.832Z,8.87
2019-03-11T23:00:04.772Z,10.23
2019-03-11T23:02:39.961Z,5.63
2019-03-11T23:05:07.128Z,3.30
2019-03-11T23:07:35.436Z,6.13
2019-03-11T23:10:04.357Z,9.00
2019-03-11T23:12:34.248Z,3.70
2019-03-11T23:15:02.598Z,4.37
2019-03-11T23:17:30.998Z,9.07
2019-03-11T23:19:59.882Z,6.37
2019-03-11T23:22:28.737Z,1.03
2019-03-11T23:24:57.482Z,1.93
2019-03-11T23:27:26.594Z,1.73
2019-03-11T23:29:55.305Z,2.67
2019-03-11T23:32:23.901Z,4.23
2019-03-11T23:34:52.432Z,1.83
2019-03-11T23:37:20.611Z,0.73
2019-03-11T23:39:49.924Z,1.30
2019-03-11T23:42:21.220Z,2.97
2019-03-11T23:44:49.991Z,3.10
2019-03-11T23:47:18.730Z,3.77
2019-03-11T23:49:47.533Z,3.10
2019-03-11T23:52:16.160Z,4.97
2019-03-11T23:54:45.032Z,3.23
2019-03-11T23:57:13.724Z,5.10
2019-03-11T23:59:42.410Z,2.20
